createdAt,value
2023-02-18T00:00:56.718Z,708
2023-02-18T00:02:10.310Z,707
2023-02-18T00:03:23.036Z,708
2023-02-18T00:04:26.769Z,706
2023-02-18T00:05:39.434Z,707
2023-02-18T00:06:52.762Z,704
2023-02-18T00:07:55.436Z,704
2023-02-18T00:09:08.769Z,705
2023-02-18T00:10:21.404Z,708
2023-02-18T00:11:34.767Z,709
2023-02-18T00:12:37.474Z,710
2023-02-18T00:13:50.761Z,707
2023-02-18T00:15:03.462Z,707
2023-02-18T00:16:16.815Z,707
2023-02-18T00:17:19.645Z,707
2023-02-18T00:18:33.262Z,706
2023-02-18T00:19:45.986Z,704
2023-02-18T00:20:49.745Z,707
2023-02-18T00:22:02.475Z,705
2023-02-18T00:23:15.768Z,706
2023-02-18T00:24:18.483Z,705
2023-02-18T00:25:31.730Z,706
2023-02-18T00:26:44.387Z,707
2023-02-18T00:27:57.811Z,707
2023-02-18T00:29:00.481Z,707
2023-02-18T00:30:13.838Z,707
2023-02-18T00:31:27.762Z,705
2023-02-18T00:32:31.291Z,704
2023-02-18T00:33:44.028Z,705
2023-02-18T00:34:57.755Z,705
2023-02-18T00:36:00.449Z,707
2023-02-18T00:37:13.760Z,706
2023-02-18T00:38:26.404Z,706
2023-02-18T00:39:39.737Z,707
2023-02-18T00:40:42.439Z,708
2023-02-18T00:41:55.757Z,707
2023-02-18T00:43:08.394Z,708
2023-02-18T00:44:11.779Z,708
2023-02-18T00:45:24.471Z,709
2023-02-18T00:46:37.829Z,711
2023-02-18T00:47:50.708Z,713
2023-02-18T00:48:54.313Z,717
2023-02-18T00:50:06.977Z,718
2023-02-18T00:51:20.246Z,721
2023-02-18T00:52:22.959Z,725
2023-02-18T00:53:36.276Z,725
2023-02-18T00:55:08.749Z,729
2023-02-18T00:56:03.790Z,734
2023-02-18T00:57:06.500Z,735
2023-02-18T00:58:20.286Z,741
2023-02-18T00:59:32.936Z,744
2023-02-18T01:00:36.270Z,751
2023-02-18T01:01:49.077Z,755
2023-02-18T01:03:02.779Z,758
2023-02-18T01:04:05.474Z,764
2023-02-18T01:05:19.788Z,765
2023-02-18T01:06:32.477Z,768
2023-02-18T01:07:36.169Z,769
2023-02-18T01:08:51.603Z,773
2023-02-18T01:10:05.279Z,770
2023-02-18T01:11:29.102Z,775
2023-02-18T01:12:23.566Z,776
2023-02-18T01:13:36.103Z,779
2023-02-18T01:14:40.257Z,783
2023-02-18T01:15:52.872Z,786
2023-02-18T01:17:06.291Z,785
2023-02-18T01:18:08.955Z,786
2023-02-18T01:19:22.302Z,785
2023-02-18T01:20:34.935Z,788
2023-02-18T01:21:38.413Z,792
2023-02-18T01:22:51.040Z,795
2023-02-18T01:24:04.780Z,796
2023-02-18T01:25:07.446Z,797
2023-02-18T01:26:20.803Z,798
2023-02-18T01:27:33.433Z,800
2023-02-18T01:28:46.851Z,803
2023-02-18T01:29:49.555Z,804
2023-02-18T01:31:03.342Z,804
2023-02-18T01:32:16.279Z,809
2023-02-18T01:33:21.286Z,810
2023-02-18T01:34:33.998Z,812
2023-02-18T01:35:47.304Z,815
2023-02-18T01:36:49.996Z,816
2023-02-18T01:38:03.307Z,816
2023-02-18T01:39:16.201Z,817
2023-02-18T01:40:29.795Z,820
2023-02-18T01:41:32.812Z,824
2023-02-18T01:42:46.789Z,826
2023-02-18T01:43:59.442Z,827
2023-02-18T01:45:02.806Z,830
2023-02-18T01:46:15.546Z,834
2023-02-18T01:47:29.304Z,835
2023-02-18T01:48:31.994Z,838
2023-02-18T01:49:46.795Z,840
2023-02-18T01:50:59.424Z,841
2023-02-18T01:52:12.805Z,846
2023-02-18T01:53:15.605Z,847
2023-02-18T01:54:29.304Z,847
2023-02-18T01:55:41.968Z,845
2023-02-18T01:56:45.749Z,848
2023-02-18T01:57:58.414Z,852
2023-02-18T01:59:12.292Z,854
2023-02-18T02:00:14.980Z,854
2023-02-18T02:01:28.769Z,854
2023-02-18T02:02:41.398Z,856
2023-02-18T02:03:54.780Z,856
2023-02-18T02:04:57.614Z,860
2023-02-18T02:06:11.298Z,863
2023-02-18T02:07:23.965Z,863
2023-02-18T02:08:27.805Z,865
2023-02-18T02:09:40.469Z,863
2023-02-18T02:10:53.812Z,864
2023-02-18T02:11:56.554Z,863
2023-02-18T02:13:09.783Z,865
2023-02-18T02:14:22.408Z,868
2023-02-18T02:15:35.769Z,871
2023-02-18T02:16:38.487Z,869
2023-02-18T02:17:52.338Z,870
2023-02-18T02:19:05.713Z,871
2023-02-18T02:20:09.312Z,874
2023-02-18T02:21:21.948Z,875
2023-02-18T02:22:35.259Z,876
2023-02-18T02:23:37.939Z,878
2023-02-18T02:25:11.274Z,880
2023-02-18T02:26:03.942Z,878
2023-02-18T02:27:17.312Z,878
2023-02-18T02:28:20.007Z,876
2023-02-18T02:29:33.789Z,874
2023-02-18T02:30:46.452Z,876
2023-02-18T02:31:49.782Z,877
2023-02-18T02:33:02.437Z,878
2023-02-18T02:34:15.768Z,879
2023-02-18T02:35:28.423Z,878
2023-02-18T02:36:31.790Z,879
2023-02-18T02:37:44.440Z,882
2023-02-18T02:38:57.797Z,884
2023-02-18T02:40:00.481Z,886
2023-02-18T02:41:13.776Z,886
2023-02-18T02:42:26.384Z,884
2023-02-18T02:43:39.793Z,887
2023-02-18T02:44:42.747Z,886
2023-02-18T02:45:57.922Z,889
2023-02-18T02:47:10.612Z,890
2023-02-18T02:48:14.336Z,890
2023-02-18T02:49:26.985Z,892
2023-02-18T02:50:40.306Z,893
2023-02-18T02:51:43.023Z,889
2023-02-18T02:52:57.769Z,890
2023-02-18T02:54:10.403Z,892
2023-02-18T02:55:13.779Z,894
2023-02-18T02:56:26.471Z,894
2023-02-18T02:57:39.775Z,894
2023-02-18T02:58:52.436Z,896
2023-02-18T02:59:56.314Z,897
2023-02-18T03:01:18.964Z,898
2023-02-18T03:02:22.815Z,897
2023-02-18T03:03:25.534Z,896
2023-02-18T03:04:39.289Z,899
2023-02-18T03:05:51.921Z,900
2023-02-18T03:06:55.309Z,900
2023-02-18T03:08:07.906Z,901
2023-02-18T03:09:21.368Z,897
2023-02-18T03:10:34.115Z,898
2023-02-18T03:11:37.786Z,896
2023-02-18T03:12:50.414Z,896
2023-02-18T03:14:03.814Z,895
2023-02-18T03:15:06.512Z,894
2023-02-18T03:16:19.859Z,896
2023-02-18T03:17:52.529Z,894
2023-02-18T03:18:46.316Z,895
2023-02-18T03:19:48.988Z,894
2023-02-18T03:21:03.293Z,893
2023-02-18T03:22:15.951Z,894
2023-02-18T03:23:19.282Z,895
2023-02-18T03:24:31.903Z,895
2023-02-18T03:25:45.310Z,892
2023-02-18T03:26:48.047Z,893
2023-02-18T03:28:01.333Z,896
2023-02-18T03:29:13.986Z,895
2023-02-18T03:30:27.355Z,895
2023-02-18T03:31:30.227Z,895
2023-02-18T03:32:43.809Z,898
2023-02-18T03:33:56.496Z,896
2023-02-18T03:34:59.789Z,896
2023-02-18T03:36:12.481Z,897
2023-02-18T03:37:26.802Z,899
2023-02-18T03:38:39.467Z,901
2023-02-18T03:39:42.817Z,900
2023-02-18T03:40:55.474Z,900
2023-02-18T03:42:08.835Z,901
2023-02-18T03:43:11.538Z,900
2023-02-18T03:44:24.801Z,901
2023-02-18T03:45:37.538Z,900
2023-02-18T03:46:51.327Z,896
2023-02-18T03:47:54.045Z,897
2023-02-18T03:49:07.320Z,897
2023-02-18T03:50:20.064Z,897
2023-02-18T03:51:23.819Z,897
2023-02-18T03:52:36.492Z,896
2023-02-18T03:53:49.812Z,893
2023-02-18T03:54:52.547Z,892
2023-02-18T03:56:06.074Z,893
2023-02-18T03:57:18.897Z,891
2023-02-18T03:58:32.302Z,890
2023-02-18T03:59:35.059Z,890
2023-02-18T04:00:48.325Z,890
2023-02-18T04:02:00.996Z,893
2023-02-18T04:03:04.826Z,891
2023-02-18T04:04:17.602Z,891
2023-02-18T04:05:31.313Z,891
2023-02-18T04:06:43.981Z,889
2023-02-18T04:07:47.809Z,887
2023-02-18T04:09:00.514Z,890
2023-02-18T04:10:15.297Z,891
2023-02-18T04:11:18.038Z,890
2023-02-18T04:12:32.811Z,892
2023-02-18T04:13:35.561Z,891
2023-02-18T04:14:48.828Z,891
2023-02-18T04:16:01.481Z,891
2023-02-18T04:17:14.842Z,893
2023-02-18T04:18:17.570Z,893
2023-02-18T04:19:31.790Z,892
2023-02-18T04:20:44.528Z,893
2023-02-18T04:21:48.336Z,895
2023-02-18T04:23:01.034Z,896
2023-02-18T04:24:14.793Z,897
2023-02-18T04:25:17.541Z,900
2023-02-18T04:26:31.297Z,902
2023-02-18T04:27:43.983Z,904
2023-02-18T04:28:47.860Z,905
2023-02-18T04:30:00.588Z,904
2023-02-18T04:31:14.452Z,904
2023-02-18T04:32:17.283Z,902
2023-02-18T04:33:44.660Z,902
2023-02-18T04:34:37.456Z,904
2023-02-18T04:35:51.184Z,905
2023-02-18T04:37:03.878Z,904
2023-02-18T04:38:17.668Z,903
2023-02-18T04:39:20.416Z,903
2023-02-18T04:40:34.170Z,904
2023-02-18T04:41:46.866Z,903
2023-02-18T04:42:50.202Z,901
2023-02-18T04:44:02.914Z,899
2023-02-18T04:45:16.680Z,896
2023-02-18T04:46:19.486Z,894
2023-02-18T04:47:33.224Z,895
2023-02-18T04:48:45.930Z,897
2023-02-18T04:50:00.741Z,896
2023-02-18T04:51:03.484Z,894
2023-02-18T04:52:17.206Z,896
2023-02-18T04:53:19.973Z,895
2023-02-18T04:54:33.724Z,892
2023-02-18T04:55:46.417Z,888
2023-02-18T04:56:59.720Z,888
2023-02-18T04:58:02.547Z,888
2023-02-18T04:59:16.247Z,890
2023-02-18T05:00:58.803Z,888
2023-02-18T05:01:32.738Z,889
2023-02-18T05:02:45.616Z,889
2023-02-18T05:03:59.238Z,890
2023-02-18T05:05:01.999Z,891
2023-02-18T05:06:15.762Z,891
2023-02-18T05:07:28.550Z,888
2023-02-18T05:08:42.194Z,888
2023-02-18T05:09:44.950Z,890
2023-02-18T05:10:58.720Z,891
2023-02-18T05:12:11.415Z,894
2023-02-18T05:13:15.229Z,895
2023-02-18T05:14:27.916Z,892
2023-02-18T05:15:41.731Z,891
2023-02-18T05:16:44.478Z,892
2023-02-18T05:17:58.214Z,893
2023-02-18T05:19:10.970Z,894
2023-02-18T05:20:14.721Z,895
2023-02-18T05:21:27.417Z,895
2023-02-18T05:23:01.221Z,893
2023-02-18T05:23:44.047Z,889
2023-02-18T05:24:56.731Z,888
2023-02-18T05:26:10.478Z,888
2023-02-18T05:27:23.507Z,887
2023-02-18T05:28:27.211Z,886
2023-02-18T05:29:39.877Z,884
2023-02-18T05:30:53.734Z,884
2023-02-18T05:32:06.416Z,884
2023-02-18T05:33:10.222Z,883
2023-02-18T05:34:23.102Z,880
2023-02-18T05:35:36.726Z,880
2023-02-18T05:36:39.496Z,881
2023-02-18T05:37:53.220Z,882
2023-02-18T05:39:05.934Z,882
2023-02-18T05:40:09.719Z,880
2023-02-18T05:41:22.436Z,880
2023-02-18T05:42:35.745Z,880
2023-02-18T05:43:38.548Z,876
2023-02-18T05:44:52.206Z,875
2023-02-18T05:46:05.012Z,874
2023-02-18T05:47:11.258Z,876
2023-02-18T05:48:24.243Z,875
2023-02-18T05:49:37.745Z,874
2023-02-18T05:50:40.472Z,873
2023-02-18T05:51:53.706Z,873
2023-02-18T05:53:06.408Z,874
2023-02-18T05:54:09.731Z,873
2023-02-18T05:55:22.420Z,872
2023-02-18T05:56:35.719Z,871
2023-02-18T05:57:38.446Z,871
2023-02-18T05:58:52.212Z,869
2023-02-18T06:00:04.881Z,870
2023-02-18T06:01:08.214Z,872
2023-02-18T06:02:21.063Z,872
2023-02-18T06:03:35.211Z,874
2023-02-18T06:04:47.899Z,871
2023-02-18T06:05:51.268Z,871
2023-02-18T06:07:04.154Z,872
2023-02-18T06:08:17.699Z,874
2023-02-18T06:09:20.435Z,876
2023-02-18T06:10:34.182Z,875
2023-02-18T06:11:47.401Z,875
2023-02-18T06:12:50.694Z,877
2023-02-18T06:14:03.401Z,877
2023-02-18T06:15:16.792Z,876
2023-02-18T06:16:19.619Z,878
2023-02-18T06:17:33.230Z,879
2023-02-18T06:18:45.931Z,879
2023-02-18T06:19:59.314Z,882
2023-02-18T06:21:02.082Z,886
2023-02-18T06:22:15.703Z,891
2023-02-18T06:23:28.437Z,897
2023-02-18T06:24:32.235Z,901
2023-02-18T06:25:44.931Z,908
2023-02-18T06:26:58.243Z,917
2023-02-18T06:28:01.289Z,931
2023-02-18T06:29:15.216Z,949
2023-02-18T06:30:27.987Z,971
2023-02-18T06:31:41.819Z,1020
2023-02-18T06:32:44.853Z,1046
2023-02-18T06:33:58.700Z,1049
2023-02-18T06:35:01.461Z,1056
2023-02-18T06:36:14.694Z,1054
2023-02-18T06:37:27.168Z,1068
2023-02-18T06:38:40.706Z,1078
2023-02-18T06:39:43.256Z,1088
2023-02-18T06:40:56.735Z,1097
2023-02-18T06:42:09.459Z,1104
2023-02-18T06:43:13.205Z,1109
2023-02-18T06:44:25.924Z,1114
2023-02-18T06:45:39.200Z,1120
2023-02-18T06:46:51.960Z,1131
2023-02-18T06:47:55.694Z,1145
2023-02-18T06:49:08.401Z,1163
2023-02-18T06:50:21.714Z,1188
2023-02-18T06:51:24.438Z,1198
2023-02-18T06:52:37.708Z,1234
2023-02-18T06:53:50.413Z,1237
2023-02-18T06:55:03.719Z,1250
2023-02-18T06:56:06.785Z,1256
2023-02-18T06:57:20.718Z,1259
2023-02-18T06:58:33.420Z,1265
2023-02-18T06:59:36.724Z,1265
2023-02-18T07:00:49.462Z,1261
2023-02-18T07:02:03.196Z,1268
2023-02-18T07:03:05.923Z,1275
2023-02-18T07:04:19.738Z,1282
2023-02-18T07:05:32.423Z,1290
2023-02-18T07:06:45.737Z,1294
2023-02-18T07:07:48.496Z,1302
2023-02-18T07:09:02.207Z,1302
2023-02-18T07:10:14.912Z,1305
2023-02-18T07:11:18.743Z,1312
2023-02-18T07:12:31.445Z,1310
2023-02-18T07:13:45.216Z,1316
2023-02-18T07:14:47.960Z,1314
2023-02-18T07:16:01.264Z,1317
2023-02-18T07:17:14.116Z,1318
2023-02-18T07:18:27.737Z,1319
2023-02-18T07:19:30.530Z,1324
2023-02-18T07:20:44.226Z,1321
2023-02-18T07:21:56.950Z,1325
2023-02-18T07:23:00.708Z,1324
2023-02-18T07:24:13.410Z,1327
2023-02-18T07:25:26.726Z,1324
2023-02-18T07:26:29.492Z,1325
2023-02-18T07:27:43.196Z,1326
2023-02-18T07:28:55.904Z,1325
2023-02-18T07:30:09.382Z,1325
2023-02-18T07:31:12.307Z,1328
2023-02-18T07:32:25.736Z,1327
2023-02-18T07:33:38.428Z,1326
2023-02-18T07:34:42.219Z,1323
2023-02-18T07:35:54.917Z,1326
2023-02-18T07:37:08.237Z,1327
2023-02-18T07:38:20.948Z,1328
2023-02-18T07:39:24.703Z,1329
2023-02-18T07:40:37.416Z,1328
2023-02-18T07:41:50.733Z,1328
2023-02-18T07:42:54.020Z,1330
2023-02-18T07:44:07.725Z,1331
2023-02-18T07:45:20.411Z,1332
2023-02-18T07:46:23.756Z,1332
2023-02-18T07:47:36.461Z,1334
2023-02-18T07:48:49.714Z,1335
2023-02-18T07:50:02.413Z,1336
2023-02-18T07:51:06.771Z,1339
2023-02-18T07:52:19.501Z,1341
2023-02-18T07:53:33.210Z,1342
2023-02-18T07:54:35.977Z,1345
2023-02-18T07:55:49.733Z,1346
2023-02-18T07:57:02.386Z,1351
2023-02-18T07:58:05.889Z,1355
2023-02-18T07:59:18.472Z,1361
2023-02-18T08:00:31.726Z,1367
2023-02-18T08:01:45.182Z,1374
2023-02-18T08:02:48.721Z,1380
2023-02-18T08:04:01.368Z,1385
2023-02-18T08:05:15.251Z,1390
2023-02-18T08:06:17.818Z,1396
2023-02-18T08:07:31.246Z,1407
2023-02-18T08:08:43.755Z,1412
2023-02-18T08:09:47.239Z,1429
2023-02-18T08:11:01.104Z,1457
2023-02-18T08:12:08.229Z,1462
2023-02-18T08:13:20.750Z,1485
2023-02-18T08:14:34.234Z,1495
2023-02-18T08:15:46.636Z,1505
2023-02-18T08:16:49.800Z,1505
2023-02-18T08:18:02.349Z,1505
2023-02-18T08:19:15.735Z,1507
2023-02-18T08:20:18.246Z,1513
2023-02-18T08:21:31.265Z,1518
2023-02-18T08:22:43.600Z,1517
2023-02-18T08:23:56.762Z,1517
2023-02-18T08:24:59.219Z,1521
2023-02-18T08:26:12.280Z,1523
2023-02-18T08:27:24.663Z,1523
2023-02-18T08:28:38.270Z,1530
2023-02-18T08:29:40.691Z,1533
2023-02-18T08:30:54.325Z,1538
2023-02-18T08:32:06.770Z,1537
2023-02-18T08:33:10.323Z,1539
2023-02-18T08:34:22.674Z,1542
2023-02-18T08:35:35.771Z,1543
2023-02-18T08:36:38.205Z,1544
2023-02-18T08:37:52.717Z,1545
2023-02-18T08:39:06.660Z,1546
2023-02-18T08:40:09.766Z,1548
2023-02-18T08:41:22.083Z,1547
2023-02-18T08:42:35.262Z,1549
2023-02-18T08:43:47.730Z,1549
2023-02-18T08:44:51.261Z,1546
2023-02-18T08:46:03.636Z,1546
2023-02-18T08:48:18.330Z,1549
2023-02-18T08:48:20.742Z,1549
2023-02-18T08:48:23.949Z,1546
2023-02-18T08:49:37.307Z,1548
2023-02-18T08:50:41.236Z,1551
2023-02-18T08:51:53.576Z,1556
2023-02-18T08:53:06.807Z,1557
2023-02-18T08:54:09.234Z,1557
2023-02-18T08:55:22.279Z,1560
2023-02-18T08:56:34.767Z,1557
2023-02-18T08:57:47.747Z,1558
2023-02-18T08:58:50.128Z,1557
2023-02-18T09:00:03.261Z,1561
2023-02-18T09:01:15.511Z,1560
2023-02-18T09:02:28.762Z,1560
2023-02-18T09:03:31.293Z,1560
2023-02-18T09:04:44.235Z,1562
2023-02-18T09:05:56.486Z,1564
2023-02-18T09:06:59.752Z,1565
2023-02-18T09:08:12.100Z,1563
2023-02-18T09:10:52.695Z,1561
2023-02-18T09:11:45.121Z,1562
2023-02-18T09:12:57.737Z,1560
2023-02-18T09:14:19.660Z,1562
2023-02-18T09:15:13.260Z,1564
2023-02-18T09:16:26.296Z,1565
2023-02-18T09:17:39.752Z,1567
2023-02-18T09:18:42.106Z,1574
2023-02-18T09:19:55.223Z,1582
2023-02-18T09:21:07.749Z,1597
2023-02-18T09:22:11.243Z,1609
2023-02-18T09:23:23.563Z,1591
2023-02-18T09:24:36.732Z,1590
2023-02-18T09:25:49.175Z,1583
2023-02-18T09:26:52.226Z,1575
2023-02-18T09:28:04.485Z,1581
2023-02-18T09:29:17.764Z,1582
2023-02-18T09:30:20.189Z,1577
2023-02-18T09:31:33.339Z,1577
2023-02-18T09:32:45.675Z,1574
2023-02-18T09:33:58.778Z,1564
2023-02-18T09:35:01.210Z,1561
2023-02-18T09:36:14.256Z,1557
2023-02-18T09:37:26.585Z,1554
2023-02-18T09:38:39.796Z,1559
2023-02-18T09:39:42.228Z,1556
2023-02-18T09:40:55.317Z,1544
2023-02-18T09:42:07.713Z,1530
2023-02-18T09:43:20.766Z,1534
2023-02-18T09:44:23.149Z,1536
2023-02-18T09:45:36.308Z,1523
2023-02-18T09:46:48.654Z,1529
2023-02-18T09:48:01.732Z,1509
2023-02-18T09:49:04.122Z,1507
2023-02-18T09:50:17.257Z,1513
2023-02-18T09:51:29.683Z,1509
2023-02-18T09:52:32.753Z,1510
2023-02-18T09:53:45.109Z,1503
2023-02-18T09:54:58.285Z,1496
2023-02-18T09:56:10.671Z,1491
2023-02-18T09:57:14.257Z,1497
2023-02-18T09:58:26.628Z,1510
2023-02-18T09:59:39.743Z,1524
2023-02-18T10:00:52.037Z,1485
2023-02-18T10:01:55.354Z,1505
2023-02-18T10:03:07.876Z,1520
2023-02-18T10:04:20.774Z,1515
2023-02-18T10:05:23.235Z,1507
2023-02-18T10:06:36.242Z,1502
2023-02-18T10:07:48.551Z,1495
2023-02-18T10:09:01.759Z,1484
2023-02-18T10:10:04.152Z,1478
2023-02-18T10:11:17.265Z,1448
2023-02-18T10:12:29.691Z,1424
2023-02-18T10:13:42.756Z,1379
2023-02-18T10:14:45.217Z,1277
2023-02-18T10:15:58.321Z,1180
2023-02-18T10:17:10.646Z,1044
2023-02-18T10:18:23.746Z,1028
2023-02-18T10:19:26.125Z,1035
2023-02-18T10:20:39.267Z,1038
2023-02-18T10:21:51.575Z,1027
2023-02-18T10:23:04.745Z,1031
2023-02-18T10:24:07.169Z,1030
2023-02-18T10:25:20.263Z,1028
2023-02-18T10:26:32.564Z,1037
2023-02-18T10:27:35.787Z,1037
2023-02-18T10:28:48.186Z,1037
2023-02-18T10:30:01.257Z,1034
2023-02-18T10:31:13.820Z,1035
2023-02-18T10:32:17.271Z,1031
2023-02-18T10:33:29.581Z,1031
2023-02-18T10:34:42.760Z,1017
2023-02-18T10:37:12.465Z,975
2023-02-18T10:38:14.853Z,921
2023-02-18T10:39:18.064Z,929
2023-02-18T10:40:30.387Z,937
2023-02-18T10:41:43.556Z,935
2023-02-18T10:42:55.886Z,942
2023-02-18T10:43:59.079Z,936
2023-02-18T10:45:11.408Z,931
2023-02-18T10:46:24.620Z,929
2023-02-18T10:47:27.182Z,927
2023-02-18T10:48:40.069Z,927
2023-02-18T10:49:52.418Z,923
2023-02-18T10:51:05.749Z,919
2023-02-18T10:52:08.268Z,917
2023-02-18T10:53:21.588Z,917
2023-02-18T10:54:33.918Z,915
2023-02-18T10:55:47.099Z,912
2023-02-18T10:56:49.539Z,909
2023-02-18T10:58:02.557Z,907
2023-02-18T10:59:14.888Z,904
2023-02-18T11:00:18.097Z,901
2023-02-18T11:01:30.613Z,894
2023-02-18T11:02:43.601Z,889
2023-02-18T11:03:55.928Z,885
2023-02-18T11:04:59.106Z,880
2023-02-18T11:06:11.647Z,872
2023-02-18T11:07:24.663Z,867
2023-02-18T11:08:37.012Z,857
2023-02-18T11:09:40.060Z,850
2023-02-18T11:10:52.540Z,841
2023-02-18T11:12:08.782Z,838
2023-02-18T11:13:11.544Z,825
2023-02-18T11:14:24.606Z,826
2023-02-18T11:15:36.983Z,809
2023-02-18T11:16:40.186Z,795
2023-02-18T11:17:52.584Z,779
2023-02-18T11:19:05.565Z,756
2023-02-18T11:20:17.951Z,736
2023-02-18T11:21:21.646Z,728
2023-02-18T11:22:34.223Z,714
2023-02-18T11:23:47.572Z,713
2023-02-18T11:24:50.245Z,710
2023-02-18T11:26:03.593Z,699
2023-02-18T11:27:15.965Z,692
2023-02-18T11:28:29.078Z,695
2023-02-18T11:29:31.548Z,691
2023-02-18T11:30:45.143Z,694
2023-02-18T11:31:57.659Z,694
2023-02-18T11:33:01.097Z,698
2023-02-18T11:34:13.789Z,703
2023-02-18T11:35:27.111Z,700
2023-02-18T11:36:39.737Z,698
2023-02-18T11:37:43.120Z,698
2023-02-18T11:38:55.515Z,696
2023-02-18T11:40:08.625Z,698
2023-02-18T11:41:11.518Z,701
2023-02-18T11:42:25.080Z,704
2023-02-18T11:43:37.480Z,708
2023-02-18T11:44:50.562Z,715
2023-02-18T11:45:53.026Z,719
2023-02-18T11:47:06.072Z,720
2023-02-18T11:48:18.510Z,723
2023-02-18T11:49:21.585Z,725
2023-02-18T11:50:33.971Z,729
2023-02-18T11:51:47.109Z,732
2023-02-18T11:52:59.490Z,733
2023-02-18T11:54:02.606Z,738
2023-02-18T11:55:15.029Z,737
2023-02-18T11:56:28.590Z,741
2023-02-18T11:57:40.982Z,741
2023-02-18T11:58:44.107Z,737
2023-02-18T11:59:56.471Z,741
2023-02-18T12:01:09.916Z,746
2023-02-18T12:02:12.789Z,749
2023-02-18T12:03:26.080Z,746
2023-02-18T12:04:38.465Z,747
2023-02-18T12:05:51.597Z,748
2023-02-18T12:06:54.072Z,750
2023-02-18T12:08:07.087Z,753
2023-02-18T12:09:19.480Z,754
2023-02-18T12:10:32.586Z,751
2023-02-18T12:11:35.057Z,750
2023-02-18T12:12:48.140Z,748
2023-02-18T12:14:00.597Z,749
2023-02-18T12:15:04.103Z,747
2023-02-18T12:16:16.875Z,745
2023-02-18T12:17:50.105Z,746
2023-02-18T12:18:42.944Z,746
2023-02-18T12:19:45.543Z,745
2023-02-18T12:20:58.622Z,746
2023-02-18T12:22:10.967Z,747
2023-02-18T12:23:24.110Z,748
2023-02-18T12:24:26.576Z,749
2023-02-18T12:25:39.596Z,752
2023-02-18T12:26:51.972Z,750
2023-02-18T12:27:55.122Z,748
2023-02-18T12:29:07.520Z,745
2023-02-18T12:30:20.663Z,744
2023-02-18T12:31:33.296Z,740
2023-02-18T12:32:36.625Z,739
2023-02-18T12:33:49.007Z,737
2023-02-18T12:35:02.154Z,736
2023-02-18T12:36:04.685Z,732
2023-02-18T12:37:18.121Z,728
2023-02-18T12:38:30.492Z,723
2023-02-18T12:39:43.631Z,728
2023-02-18T12:40:46.207Z,735
2023-02-18T12:42:09.134Z,739
2023-02-18T12:43:11.590Z,751
2023-02-18T12:44:25.137Z,767
2023-02-18T12:45:27.621Z,795
2023-02-18T12:46:40.611Z,870
2023-02-18T12:48:02.921Z,949
2023-02-18T12:48:56.136Z,931
2023-02-18T12:50:08.491Z,950
2023-02-18T12:51:21.672Z,961
2023-02-18T12:52:34.076Z,961
2023-02-18T12:53:37.109Z,965
2023-02-18T12:54:49.554Z,958
2023-02-18T12:56:02.605Z,957
2023-02-18T12:57:14.914Z,967
2023-02-18T12:58:18.109Z,970
2023-02-18T12:59:30.644Z,981
2023-02-18T13:00:43.616Z,986
2023-02-18T13:01:46.061Z,992
2023-02-18T13:02:59.181Z,996
2023-02-18T13:04:11.644Z,1004
2023-02-18T13:05:24.653Z,1003
2023-02-18T13:06:27.079Z,1010
2023-02-18T13:07:40.117Z,1012
2023-02-18T13:08:52.511Z,1011
2023-02-18T13:10:05.660Z,1013
2023-02-18T13:11:08.045Z,1018
2023-02-18T13:12:21.120Z,1023
2023-02-18T13:13:33.469Z,1029
2023-02-18T13:14:36.634Z,1033
2023-02-18T13:15:48.914Z,1039
2023-02-18T13:17:02.182Z,1048
2023-02-18T13:18:14.502Z,1058
2023-02-18T13:19:17.653Z,1074
2023-02-18T13:20:30.079Z,1082
2023-02-18T13:21:43.107Z,1091
2023-02-18T13:22:55.356Z,1092
2023-02-18T13:23:59.115Z,1094
2023-02-18T13:25:11.360Z,1093
2023-02-18T13:26:34.130Z,1098
2023-02-18T13:27:26.680Z,1095
2023-02-18T13:28:39.739Z,1090
2023-02-18T13:29:51.978Z,1088
2023-02-18T13:31:05.218Z,1084
2023-02-18T13:32:07.799Z,1082
2023-02-18T13:33:21.139Z,1075
2023-02-18T13:34:33.434Z,1073
2023-02-18T13:35:46.626Z,1071
2023-02-18T13:36:48.992Z,1068
2023-02-18T13:38:02.135Z,1063
2023-02-18T13:39:14.439Z,1060
2023-02-18T13:40:17.617Z,1057
2023-02-18T13:41:29.896Z,1055
2023-02-18T13:42:43.124Z,1054
2023-02-18T13:43:55.385Z,1050
2023-02-18T13:44:58.609Z,1051
2023-02-18T13:46:11.041Z,1049
2023-02-18T13:47:24.147Z,1049
2023-02-18T13:48:26.504Z,1046
2023-02-18T13:49:49.624Z,1043
2023-02-18T13:50:52.042Z,1040
2023-02-18T13:52:05.133Z,1037
2023-02-18T13:53:07.502Z,1036
2023-02-18T13:54:20.610Z,1040
2023-02-18T13:55:32.956Z,1044
2023-02-18T13:56:46.643Z,1045
2023-02-18T13:57:49.046Z,1048
2023-02-18T13:59:02.109Z,1057
2023-02-18T14:00:14.402Z,1065
2023-02-18T14:01:17.619Z,1080
2023-02-18T14:02:29.950Z,1087
2023-02-18T14:03:43.149Z,1090
2023-02-18T14:04:55.394Z,1093
2023-02-18T14:05:58.728Z,1092
2023-02-18T14:07:11.040Z,1094
2023-02-18T14:08:24.118Z,1094
2023-02-18T14:09:26.499Z,1096
2023-02-18T14:10:39.655Z,1098
2023-02-18T14:11:51.903Z,1100
2023-02-18T14:13:05.118Z,1102
2023-02-18T14:14:07.456Z,1102
2023-02-18T14:15:20.658Z,1102
2023-02-18T14:16:32.899Z,1107
2023-02-18T14:17:46.149Z,1108
2023-02-18T14:18:48.536Z,1109
2023-02-18T14:20:01.665Z,1110
2023-02-18T14:21:13.994Z,1110
2023-02-18T14:22:27.126Z,1111
2023-02-18T14:23:29.494Z,1115
2023-02-18T14:24:43.680Z,1120
2023-02-18T14:25:55.908Z,1122
2023-02-18T14:26:59.121Z,1127
2023-02-18T14:28:11.388Z,1127
2023-02-18T14:29:24.652Z,1126
2023-02-18T14:30:27.038Z,1130
2023-02-18T14:31:40.238Z,1132
2023-02-18T14:32:52.563Z,1135
2023-02-18T14:34:05.672Z,1136
2023-02-18T14:35:08.100Z,1137
2023-02-18T14:36:21.248Z,1139
2023-02-18T14:37:33.468Z,1139
2023-02-18T14:38:46.652Z,1138
2023-02-18T14:39:49.035Z,1135
2023-02-18T14:41:02.166Z,1131
2023-02-18T14:42:14.507Z,1132
2023-02-18T14:43:17.721Z,1132
2023-02-18T14:44:30.005Z,1135
2023-02-18T14:45:43.644Z,1137
2023-02-18T14:46:55.931Z,1137
2023-02-18T14:47:59.172Z,1138
2023-02-18T14:49:21.336Z,1137
2023-02-18T14:50:24.784Z,1139
2023-02-18T14:51:27.217Z,1140
2023-02-18T14:52:40.195Z,1142
2023-02-18T14:53:52.397Z,1142
2023-02-18T14:55:05.662Z,1148
2023-02-18T14:56:08.464Z,1154
2023-02-18T14:57:21.666Z,1159
2023-02-18T14:58:33.895Z,1163
2023-02-18T14:59:48.455Z,1164
2023-02-18T15:00:50.908Z,1165
2023-02-18T15:02:04.200Z,1169
2023-02-18T15:03:16.469Z,1172
2023-02-18T15:04:19.680Z,1173
2023-02-18T15:05:31.967Z,1175
2023-02-18T15:06:45.179Z,1176
2023-02-18T15:07:47.505Z,1178
2023-02-18T15:09:00.682Z,1179
2023-02-18T15:10:12.899Z,1179
2023-02-18T15:11:26.401Z,1180
2023-02-18T15:12:28.729Z,1178
2023-02-18T15:13:41.675Z,1180
2023-02-18T15:14:53.867Z,1180
2023-02-18T15:16:07.393Z,1181
2023-02-18T15:17:09.954Z,1183
2023-02-18T15:18:23.167Z,1183
2023-02-18T15:19:35.400Z,1184
2023-02-18T15:20:38.704Z,1185
2023-02-18T15:21:50.902Z,1184
2023-02-18T15:23:04.177Z,1185
2023-02-18T15:24:18.823Z,1186
2023-02-18T15:25:22.155Z,1186
2023-02-18T15:26:34.485Z,1186
2023-02-18T15:27:47.671Z,1185
2023-02-18T15:28:49.976Z,1190
2023-02-18T15:30:03.334Z,1186
2023-02-18T15:31:16.016Z,1187
2023-02-18T15:32:19.783Z,1187
2023-02-18T15:33:32.095Z,1186
2023-02-18T15:34:45.150Z,1186
2023-02-18T15:35:47.472Z,1183
2023-02-18T15:37:00.766Z,1182
2023-02-18T15:38:12.988Z,1182
2023-02-18T15:39:26.581Z,1180
2023-02-18T15:40:29.131Z,1176
2023-02-18T15:41:42.163Z,1176
2023-02-18T15:42:54.431Z,1179
2023-02-18T15:43:57.687Z,1180
2023-02-18T15:45:10.544Z,1181
2023-02-18T15:46:23.707Z,1178
2023-02-18T15:47:35.954Z,1179
2023-02-18T15:48:58.688Z,1178
2023-02-18T15:49:51.167Z,1178
2023-02-18T15:51:15.948Z,1177
2023-02-18T15:52:09.615Z,1179